createdAt,value
2024-01-28T00:01:52.244Z,3.57
2024-01-28T00:06:57.949Z,3.50
2024-01-28T00:12:03.675Z,2.77
2024-01-28T00:17:11.960Z,2.37
2024-01-28T00:22:16.892Z,2.80
2024-01-28T00:27:22.616Z,2.27
2024-01-28T00:32:28.203Z,2.50
2024-01-28T00:37:33.838Z,2.30
2024-01-28T00:42:39.551Z,2.97
2024-01-28T00:47:46.122Z,2.63
2024-01-28T00:52:51.766Z,2.30
2024-01-28T00:57:57.434Z,2.37
2024-01-28T01:03:03.153Z,2.20
2024-01-28T01:08:09.488Z,2.60
2024-01-28T01:13:15.242Z,2.90
2024-01-28T01:18:21.108Z,3.10
2024-01-28T01:23:26.879Z,2.90
2024-01-28T01:28:35.561Z,2.80
2024-01-28T01:33:42.926Z,2.50
2024-01-28T01:38:49.422Z,2.27
2024-01-28T01:43:59.908Z,2.27
2024-01-28T01:49:07.336Z,2.63
2024-01-28T01:54:13.632Z,2.63
2024-01-28T01:59:21.016Z,2.93
2024-01-28T02:04:26.813Z,2.30
2024-01-28T02:09:34.824Z,2.70
2024-01-28T02:14:41.276Z,2.67
2024-01-28T02:19:47.017Z,2.57
2024-01-28T02:24:55.986Z,2.23
2024-01-28T02:30:01.612Z,2.83
2024-01-28T02:35:08.446Z,3.30
2024-01-28T02:40:14.826Z,2.80
2024-01-28T02:45:21.617Z,2.40
2024-01-28T02:50:27.315Z,2.47
2024-01-28T02:55:32.982Z,2.80
2024-01-28T03:00:38.887Z,2.80
2024-01-28T03:05:45.029Z,2.93
2024-01-28T03:10:50.781Z,2.50
2024-01-28T03:15:58.116Z,2.87
2024-01-28T03:21:03.815Z,3.63
2024-01-28T03:26:14.538Z,3.90
2024-01-28T03:31:20.280Z,2.80
2024-01-28T03:36:26.221Z,2.77
2024-01-28T03:41:32.052Z,3.20
2024-01-28T03:46:39.346Z,3.03
2024-01-28T03:51:45.124Z,3.10
2024-01-28T03:56:50.778Z,2.73
2024-01-28T04:01:56.550Z,2.87
2024-01-28T04:07:02.566Z,2.60
2024-01-28T04:12:08.920Z,3.17
2024-01-28T04:17:14.569Z,2.83
2024-01-28T04:22:20.146Z,3.13
2024-01-28T04:27:25.834Z,2.50
2024-01-28T04:32:31.613Z,3.47
2024-01-28T04:37:37.251Z,3.40
2024-01-28T04:42:42.952Z,3.80
2024-01-28T04:47:48.623Z,3.37
2024-01-28T04:52:54.426Z,4.57
2024-01-28T04:58:00.060Z,3.73
2024-01-28T05:03:06.209Z,4.30
2024-01-28T05:08:12.083Z,4.70
2024-01-28T05:13:17.657Z,3.37
2024-01-28T05:18:23.363Z,4.37
2024-01-28T05:23:29.195Z,4.00
2024-01-28T05:28:34.848Z,4.83
2024-01-28T05:33:40.650Z,3.97
2024-01-28T05:38:46.311Z,3.50
2024-01-28T05:43:52.055Z,3.80
2024-01-28T05:48:57.794Z,4.20
2024-01-28T05:54:03.512Z,4.17
2024-01-28T05:59:09.146Z,4.70
2024-01-28T06:04:14.890Z,4.00
2024-01-28T06:09:21.438Z,4.27
2024-01-28T06:14:28.614Z,5.50
2024-01-28T06:19:34.336Z,4.37
2024-01-28T06:24:43.482Z,4.77
2024-01-28T06:29:49.187Z,5.33
2024-01-28T06:34:55.085Z,5.30
2024-01-28T06:40:00.970Z,4.90
2024-01-28T06:45:09.500Z,4.37
2024-01-28T06:50:15.516Z,4.63
2024-01-28T06:55:21.237Z,5.50
2024-01-28T07:00:26.864Z,5.40
2024-01-28T07:05:32.706Z,6.03
2024-01-28T07:10:38.941Z,5.23
2024-01-28T07:15:44.941Z,6.00
2024-01-28T07:20:50.682Z,5.83
2024-01-28T07:25:56.564Z,5.93
2024-01-28T07:31:02.372Z,6.50
2024-01-28T07:36:08.596Z,4.70
2024-01-28T07:41:16.075Z,5.20
2024-01-28T07:46:23.162Z,5.40
2024-01-28T07:51:29.016Z,6.00
2024-01-28T07:56:34.759Z,4.57
2024-01-28T08:01:40.587Z,5.13
2024-01-28T08:06:46.604Z,4.80
2024-01-28T08:11:52.990Z,5.33
2024-01-28T08:16:58.660Z,5.77
2024-01-28T08:22:04.689Z,6.23
2024-01-28T08:27:10.564Z,5.73
2024-01-28T08:32:16.494Z,5.27
2024-01-28T08:37:24.081Z,6.07
2024-01-28T08:42:30.391Z,5.83
2024-01-28T08:47:36.072Z,5.87
2024-01-28T08:52:43.581Z,5.57
2024-01-28T08:57:49.325Z,5.47
2024-01-28T09:02:55.637Z,5.37
2024-01-28T09:08:01.627Z,6.57
2024-01-28T09:13:07.466Z,6.60
2024-01-28T09:18:13.767Z,6.70
2024-01-28T09:23:19.664Z,6.63
2024-01-28T09:28:25.315Z,6.40
2024-01-28T09:33:31.001Z,5.60
2024-01-28T09:38:37.126Z,7.87
2024-01-28T09:43:43.150Z,6.60
2024-01-28T09:48:49.852Z,7.57
2024-01-28T09:53:55.683Z,6.80
2024-01-28T09:59:02.672Z,7.13
2024-01-28T10:04:08.725Z,6.87
2024-01-28T10:09:14.766Z,6.50
2024-01-28T10:14:21.008Z,7.50
2024-01-28T10:19:27.104Z,7.23
2024-01-28T10:24:33.076Z,6.93
2024-01-28T10:29:40.246Z,7.07
2024-01-28T10:34:46.109Z,7.60
2024-01-28T10:39:55.376Z,6.13
2024-01-28T10:45:01.720Z,7.50
2024-01-28T10:50:09.690Z,8.23
2024-01-28T10:55:17.596Z,7.63
2024-01-28T11:00:23.362Z,7.90
2024-01-28T11:05:30.132Z,8.43
2024-01-28T11:10:36.587Z,6.70
2024-01-28T11:15:44.718Z,7.30
2024-01-28T11:20:50.419Z,6.90
2024-01-28T11:25:57.361Z,6.47
2024-01-28T11:31:03.128Z,7.13
2024-01-28T11:36:10.361Z,7.60
2024-01-28T11:41:19.481Z,8.43
2024-01-28T11:46:26.120Z,6.47
2024-01-28T11:51:34.416Z,6.50
2024-01-28T11:56:43.087Z,7.07
2024-01-28T12:01:48.607Z,6.40
2024-01-28T12:06:54.549Z,6.47
2024-01-28T12:12:00.307Z,6.90
2024-01-28T12:17:06.186Z,6.70
2024-01-28T12:22:14.880Z,7.23
2024-01-28T12:27:20.733Z,5.40
2024-01-28T12:32:26.576Z,5.63
2024-01-28T12:37:33.207Z,6.77
2024-01-28T12:42:41.161Z,4.83
2024-01-28T12:47:48.113Z,5.17
2024-01-28T12:52:53.954Z,5.40
2024-01-28T12:57:59.652Z,5.43
2024-01-28T13:03:06.015Z,4.67
2024-01-28T13:08:11.801Z,4.93
2024-01-28T13:13:17.513Z,5.63
2024-01-28T13:18:30.414Z,4.57
2024-01-28T13:23:30.400Z,4.10
2024-01-28T13:28:36.082Z,3.80
2024-01-28T13:33:41.972Z,4.00
2024-01-28T13:38:48.457Z,2.90
2024-01-28T13:43:54.834Z,4.13
2024-01-28T13:49:00.520Z,2.90
2024-01-28T13:54:06.675Z,3.77
2024-01-28T13:59:14.461Z,3.63
2024-01-28T14:04:20.901Z,2.80
2024-01-28T14:09:26.771Z,3.27
2024-01-28T14:14:32.520Z,4.03
2024-01-28T14:19:40.374Z,3.77
2024-01-28T14:24:47.715Z,3.20
2024-01-28T14:29:53.605Z,4.10
2024-01-28T14:34:59.220Z,3.50
2024-01-28T14:40:08.025Z,3.97
2024-01-28T14:45:14.000Z,3.20
2024-01-28T14:50:21.304Z,2.73
2024-01-28T14:55:26.943Z,3.67
2024-01-28T15:00:32.761Z,3.20
2024-01-28T15:05:38.498Z,3.10
2024-01-28T15:10:44.311Z,3.80
2024-01-28T15:15:50.148Z,4.20
2024-01-28T15:20:55.792Z,5.03
2024-01-28T15:26:02.688Z,4.50
2024-01-28T15:31:08.655Z,4.83
2024-01-28T15:36:15.017Z,4.63
2024-01-28T15:41:21.228Z,4.57
2024-01-28T15:46:28.873Z,4.37
2024-01-28T15:51:35.058Z,4.40
2024-01-28T15:56:41.229Z,4.60
2024-01-28T16:01:46.956Z,3.90
2024-01-28T16:06:53.115Z,4.03
2024-01-28T16:11:58.928Z,3.73
2024-01-28T16:17:04.803Z,3.83
2024-01-28T16:22:10.394Z,3.47
2024-01-28T16:27:16.254Z,3.90
2024-01-28T16:32:22.002Z,4.40
2024-01-28T16:37:27.670Z,4.33
2024-01-28T16:42:33.414Z,3.33
2024-01-28T16:47:39.680Z,3.77
2024-01-28T16:52:45.287Z,3.73
2024-01-28T16:57:51.205Z,3.27
2024-01-28T17:02:57.046Z,3.67
2024-01-28T17:08:02.954Z,4.57
2024-01-28T17:13:08.825Z,3.63
2024-01-28T17:18:14.761Z,4.07
2024-01-28T17:23:20.416Z,3.43
2024-01-28T17:28:25.991Z,3.53
2024-01-28T17:33:31.820Z,3.47
2024-01-28T17:38:39.871Z,3.47
2024-01-28T17:43:47.378Z,3.07
2024-01-28T17:48:53.360Z,4.07
2024-01-28T17:53:59.121Z,3.17
2024-01-28T17:59:05.230Z,2.67
2024-01-28T18:04:11.390Z,3.83
2024-01-28T18:09:17.265Z,3.43
2024-01-28T18:14:22.908Z,4.70
2024-01-28T18:19:28.751Z,3.40
2024-01-28T18:24:35.507Z,3.50
2024-01-28T18:29:41.259Z,3.97
2024-01-28T18:34:48.169Z,3.93
2024-01-28T18:39:53.914Z,3.50
2024-01-28T18:44:59.683Z,3.80
2024-01-28T18:50:05.951Z,4.40
2024-01-28T18:55:12.614Z,3.57
2024-01-28T19:00:19.122Z,4.43
2024-01-28T19:05:25.009Z,3.60
2024-01-28T19:10:30.879Z,3.43
2024-01-28T19:15:36.840Z,4.40
2024-01-28T19:20:42.669Z,4.13
2024-01-28T19:25:48.385Z,4.23
2024-01-28T19:30:53.970Z,4.20
2024-01-28T19:35:59.819Z,3.90
2024-01-28T19:41:05.604Z,4.03
2024-01-28T19:46:11.705Z,4.43
2024-01-28T19:51:18.076Z,4.97
2024-01-28T19:56:23.827Z,5.10
2024-01-28T20:01:29.600Z,4.97
2024-01-28T20:06:37.732Z,4.83
2024-01-28T20:11:43.080Z,5.87
2024-01-28T20:16:48.662Z,5.50
2024-01-28T20:21:54.740Z,5.37
2024-01-28T20:27:00.609Z,5.43
2024-01-28T20:32:06.793Z,6.53
2024-01-28T20:37:13.060Z,5.70
2024-01-28T20:42:18.976Z,6.23
2024-01-28T20:47:24.976Z,5.70
2024-01-28T20:52:30.620Z,6.00
2024-01-28T20:57:36.492Z,6.30
2024-01-28T21:02:42.214Z,5.90
2024-01-28T21:07:48.010Z,6.23
2024-01-28T21:12:53.874Z,5.10
2024-01-28T21:17:59.657Z,6.03
2024-01-28T21:23:05.561Z,5.87
2024-01-28T21:28:12.070Z,5.93
2024-01-28T21:33:21.288Z,5.37
2024-01-28T21:38:27.323Z,6.13
2024-01-28T21:43:32.981Z,5.13
2024-01-28T21:48:38.698Z,5.20
2024-01-28T21:53:44.636Z,6.33
2024-01-28T21:58:50.343Z,5.07
2024-01-28T22:03:57.048Z,6.00
2024-01-28T22:09:02.719Z,5.33
2024-01-28T22:14:08.743Z,4.77
2024-01-28T22:19:14.477Z,5.70
2024-01-28T22:24:20.170Z,5.57
2024-01-28T22:29:26.054Z,5.00
2024-01-28T22:34:32.478Z,5.50
2024-01-28T22:39:38.333Z,5.03
2024-01-28T22:44:44.074Z,5.10
2024-01-28T22:49:49.963Z,4.70
2024-01-28T22:54:55.881Z,5.07
2024-01-28T23:00:02.390Z,4.93
2024-01-28T23:05:09.131Z,4.87
2024-01-28T23:10:15.096Z,4.87
2024-01-28T23:15:22.538Z,5.27
2024-01-28T23:20:28.821Z,4.70
2024-01-28T23:25:34.516Z,5.03
2024-01-28T23:30:41.130Z,5.30
2024-01-28T23:35:47.625Z,5.20
2024-01-28T23:40:53.353Z,5.93
2024-01-28T23:45:59.362Z,5.67
2024-01-28T23:51:05.316Z,5.43
2024-01-28T23:56:11.085Z,5.60
